Time;durP1;ratioP1;P1;durP2;ratioP2;P2;SDS_P1;SDS_P2;PMS_P1;PMS_P2;Temp;Humidity;BMP_temperature;BMP_pressure;BME280_temperature;BME280_humidity;BME280_pressure;Samples;Min_cycle;Max_cycle;Signal;HPM_P1;HPM_P2
2021/09/07 00:02:21;;;;;;;24.33;17.37;;;;;15.00;101863.00;;;;12871749;22;20173;-77
2021/09/07 00:07:24;;;;;;;22.70;14.97;;;;;14.90;101872.00;;;;12943427;22;20193;-78
2021/09/07 00:12:25;;;;;;;23.33;16.23;;;;;14.90;101863.00;;;;12896456;22;21002;-78
2021/09/07 00:17:27;;;;;;;28.70;17.07;;;;;14.80;101857.00;;;;12907098;22;20196;-77
2021/09/07 00:22:29;;;;;;;29.17;17.53;;;;;14.70;101853.00;;;;12846943;22;20169;-78
2021/09/07 00:27:30;;;;;;;24.50;16.10;;;;;14.70;101848.00;;;;12871271;22;20201;-78
2021/09/07 00:32:31;;;;;;;26.43;16.67;;;;;14.60;101845.00;;;;12896377;22;20594;-78
2021/09/07 00:37:32;;;;;;;22.80;16.80;;;;;14.60;101849.00;;;;12870686;22;20174;-78
2021/09/07 00:42:34;;;;;;;23.80;16.80;;;;;14.50;101849.00;;;;12921361;22;20169;-78
2021/09/07 00:47:36;;;;;;;26.07;17.33;;;;;14.50;101842.00;;;;12871369;22;20203;-78
2021/09/07 00:52:38;;;;;;;25.53;17.57;;;;;14.40;101843.00;;;;12870933;22;20185;-78
2021/09/07 00:57:40;;;;;;;25.50;18.53;;;;;14.40;101839.00;;;;12870156;22;20173;-78
2021/09/07 01:02:42;;;;;;;22.67;17.20;;;;;14.40;101847.00;;;;12917627;22;20256;-80
2021/09/07 01:07:43;;;;;;;27.70;17.93;;;;;14.30;101837.00;;;;12867596;22;20335;-80
2021/09/07 01:12:45;;;;;;;23.60;17.83;;;;;14.30;101834.00;;;;12866527;22;20176;-80
2021/09/07 01:17:46;;;;;;;26.30;18.07;;;;;14.20;101836.00;;;;12890431;22;20260;-79
2021/09/07 01:22:48;;;;;;;28.07;18.07;;;;;14.10;101828.00;;;;12865624;22;20910;-79
2021/09/07 01:27:49;;;;;;;26.10;18.67;;;;;14.10;101828.00;;;;12892272;22;20193;-79
2021/09/07 01:32:50;;;;;;;26.03;17.57;;;;;14.00;101824.00;;;;12892463;22;20197;-79
2021/09/07 01:37:51;;;;;;;26.57;18.73;;;;;14.00;101821.00;;;;12940814;22;20173;-80
2021/09/07 01:42:52;;;;;;;29.03;18.07;;;;;13.90;101816.00;;;;12868513;22;20185;-79
2021/09/07 01:47:54;;;;;;;29.30;19.13;;;;;13.90;101821.00;;;;12914796;22;20215;-80
2021/09/07 01:52:55;;;;;;;27.57;18.37;;;;;13.80;101825.00;;;;12891290;22;20208;-79
2021/09/07 01:57:57;;;;;;;27.77;18.30;;;;;13.80;101822.00;;;;12893489;22;20727;-80
2021/09/07 02:02:58;;;;;;;26.90;18.93;;;;;13.80;101823.00;;;;12867465;22;20173;-79
2021/09/07 02:08:00;;;;;;;33.23;20.13;;;;;13.70;101814.00;;;;12868184;22;20260;-79
2021/09/07 02:13:02;;;;;;;27.40;18.37;;;;;13.70;101807.00;;;;12844179;22;20611;-80
2021/09/07 02:18:05;;;;;;;31.03;19.07;;;;;13.60;101804.00;;;;12892848;22;20248;-80
2021/09/07 02:23:07;;;;;;;29.73;17.80;;;;;13.50;101811.00;;;;12892352;22;20169;-79
2021/09/07 02:28:11;;;;;;;24.37;16.30;;;;;13.50;101805.00;;;;12892251;22;20292;-80
2021/09/07 02:33:13;;;;;;;24.63;17.13;;;;;13.40;101811.00;;;;12892167;22;20305;-80
2021/09/07 02:38:14;;;;;;;26.50;16.97;;;;;13.40;101791.00;;;;12867606;22;20602;-80
2021/09/07 02:43:15;;;;;;;28.03;18.87;;;;;13.40;101788.00;;;;12892011;22;20166;-80
2021/09/07 02:48:17;;;;;;;25.30;17.30;;;;;13.40;101789.00;;;;12939088;22;20185;-80
2021/09/07 02:53:18;;;;;;;29.53;19.80;;;;;13.40;101781.00;;;;12891696;22;20180;-80
2021/09/07 02:58:20;;;;;;;32.47;20.60;;;;;13.40;101782.00;;;;12868806;22;20240;-80
2021/09/07 03:03:22;;;;;;;32.73;20.83;;;;;13.40;101783.00;;;;12869196;22;20180;-80
2021/09/07 03:08:24;;;;;;;29.23;20.23;;;;;13.30;101783.00;;;;12892291;22;20200;-80
2021/09/07 03:13:26;;;;;;;27.30;19.67;;;;;13.20;101776.00;;;;12892906;22;20184;-80
2021/09/07 03:18:27;;;;;;;28.50;20.13;;;;;13.20;101771.00;;;;12868490;22;20212;-80
2021/09/07 03:23:29;;;;;;;33.90;20.43;;;;;13.10;101774.00;;;;12894084;22;20177;-80
2021/09/07 03:28:30;;;;;;;34.63;20.20;;;;;13.10;101775.00;;;;12869847;22;20197;-80
2021/09/07 03:33:35;;;;;;;35.13;21.63;;;;;13.10;101770.00;;;;12870862;22;20173;-80
2021/09/07 03:38:36;;;;;;;34.73;21.97;;;;;13.10;101778.00;;;;12918385;22;20206;-80
2021/09/07 03:43:39;;;;;;;34.23;22.60;;;;;13.10;101779.00;;;;12870331;22;20605;-79
2021/09/07 03:48:41;;;;;;;32.20;22.03;;;;;13.10;101782.00;;;;12868657;22;20655;-79
2021/09/07 03:53:46;;;;;;;39.40;22.00;;;;;13.10;101791.00;;;;12893240;22;20541;-79
2021/09/07 03:58:47;;;;;;;32.10;21.53;;;;;13.00;101788.00;;;;12893746;22;20249;-80
2021/09/07 04:03:48;;;;;;;30.93;20.73;;;;;13.00;101786.00;;;;12869488;22;20169;-81
2021/09/07 04:08:50;;;;;;;29.83;20.27;;;;;12.90;101785.00;;;;12867680;22;20261;-80
2021/09/07 04:13:51;;;;;;;37.73;22.13;;;;;12.80;101780.00;;;;12892791;22;20173;-80
2021/09/07 04:18:53;;;;;;;33.27;21.17;;;;;12.80;101782.00;;;;12868413;22;20196;-79
2021/09/07 04:23:56;;;;;;;37.40;22.13;;;;;12.80;101790.00;;;;12868796;22;20501;-80
2021/09/07 04:28:58;;;;;;;37.90;22.23;;;;;12.80;101780.00;;;;12868928;22;20656;-80
2021/09/07 04:34:00;;;;;;;36.73;23.20;;;;;12.80;101790.00;;;;12913448;22;20474;-80
2021/09/07 04:39:02;;;;;;;34.70;22.80;;;;;12.70;101797.00;;;;12938439;22;20170;-79
2021/09/07 04:44:03;;;;;;;36.17;22.17;;;;;12.70;101798.00;;;;12887263;22;20169;-79
2021/09/07 04:49:05;;;;;;;41.33;24.17;;;;;12.70;101807.00;;;;12842776;22;20260;-78
2021/09/07 04:54:07;;;;;;;45.33;23.57;;;;;12.70;101805.00;;;;12913950;22;20165;-79
2021/09/07 04:59:08;;;;;;;34.67;22.27;;;;;12.70;101807.00;;;;12848627;22;20178;-78
2021/09/07 05:04:09;;;;;;;35.10;21.97;;;;;12.70;101814.00;;;;12889109;22;20173;-78
2021/09/07 05:09:10;;;;;;;35.57;21.83;;;;;12.70;101812.00;;;;12863251;22;20201;-79
2021/09/07 05:14:11;;;;;;;34.10;20.73;;;;;12.70;101823.00;;;;12890313;22;20161;-78
2021/09/07 05:19:15;;;;;;;33.90;21.50;;;;;12.60;101822.00;;;;12886982;22;20688;-79
2021/09/07 05:24:16;;;;;;;32.97;20.50;;;;;12.70;101826.00;;;;12862110;22;20244;-79
2021/09/07 05:29:17;;;;;;;34.23;20.30;;;;;12.70;101823.00;;;;12862537;22;20181;-79
2021/09/07 05:34:18;;;;;;;31.83;21.20;;;;;12.80;101825.00;;;;12889131;22;20166;-79
2021/09/07 05:39:19;;;;;;;33.33;22.67;;;;;13.00;101828.00;;;;12887302;22;20644;-79
2021/09/07 05:44:21;;;;;;;36.00;21.43;;;;;13.20;101834.00;;;;12936245;22;20481;-79
2021/09/07 05:49:22;;;;;;;32.23;20.80;;;;;13.40;101849.00;;;;12865864;22;20261;-79
2021/09/07 05:54:23;;;;;;;34.03;22.50;;;;;13.60;101865.00;;;;12865339;22;20196;-78
2021/09/07 05:59:25;;;;;;;33.20;22.10;;;;;13.90;101864.00;;;;12911619;22;20170;-79
2021/09/07 06:04:26;;;;;;;35.27;22.37;;;;;14.10;101863.00;;;;12884904;22;20166;-78
2021/09/07 06:09:27;;;;;;;34.00;22.40;;;;;14.30;101860.00;;;;12888752;22;20177;-79
2021/09/07 06:14:31;;;;;;;31.97;21.87;;;;;14.40;101863.00;;;;12838125;22;20177;-79
2021/09/07 06:19:32;;;;;;;33.93;21.53;;;;;14.80;101871.00;;;;12890855;22;20193;-79
2021/09/07 06:24:34;;;;;;;32.80;21.53;;;;;15.20;101886.00;;;;12844388;22;20174;-79
2021/09/07 06:29:35;;;;;;;37.67;23.50;;;;;15.70;101904.00;;;;12867211;22;20789;-79
2021/09/07 06:34:37;;;;;;;34.27;21.93;;;;;16.40;101916.00;;;;12867769;22;20236;-79
2021/09/07 06:39:38;;;;;;;33.27;24.40;;;;;16.80;101926.00;;;;12892412;22;20166;-80
2021/09/07 06:44:39;;;;;;;29.93;21.63;;;;;17.00;101929.00;;;;12843155;22;20200;-79
2021/09/07 06:49:41;;;;;;;32.65;21.95;;;;;17.20;101926.00;;;;12917464;22;20490;-79
2021/09/07 06:54:42;;;;;;;35.83;21.80;;;;;17.50;101937.00;;;;12891869;22;20228;-79
2021/09/07 06:59:43;;;;;;;35.88;23.40;;;;;18.00;101924.00;;;;12891365;22;20184;-79
2021/09/07 07:04:44;;;;;;;37.33;23.67;;;;;18.30;101932.00;;;;12891751;22;20517;-79
2021/09/07 07:09:45;;;;;;;41.35;23.67;;;;;18.50;101924.00;;;;12891722;22;20170;-79
2021/09/07 07:14:46;;;;;;;40.47;26.83;;;;;19.00;101920.00;;;;12865977;22;20197;-79
2021/09/07 07:19:50;;;;;;;38.22;26.35;;;;;19.40;101925.00;;;;12911215;22;20189;-79
2021/09/07 07:24:52;;;;;;;36.92;25.48;;;;;19.50;101927.00;;;;12889426;22;20194;-79
2021/09/07 07:29:53;;;;;;;34.83;25.08;;;;;19.70;101927.00;;;;12890382;22;20180;-79
2021/09/07 07:34:54;;;;;;;37.65;26.45;;;;;20.00;101931.00;;;;12866152;22;20228;-79
2021/09/07 07:39:55;;;;;;;36.05;26.35;;;;;20.20;101939.00;;;;12889779;22;20192;-79
2021/09/07 07:44:57;;;;;;;40.38;25.40;;;;;20.40;101930.00;;;;12892072;22;20212;-79
2021/09/07 07:49:58;;;;;;;38.55;26.40;;;;;20.50;101929.00;;;;12910951;22;20173;-80
2021/09/07 07:54:59;;;;;;;36.45;27.08;;;;;20.70;101926.00;;;;12840666;22;20224;-79
2021/09/07 08:00:03;;;;;;;40.03;27.02;;;;;21.10;101931.00;;;;12936058;22;20794;-80
2021/09/07 08:05:05;;;;;;;34.45;25.92;;;;;21.40;101934.00;;;;12890289;23;20193;-80
2021/09/07 08:10:07;;;;;;;35.05;25.35;;;;;21.80;101930.00;;;;12890447;22;20173;-79
2021/09/07 08:15:09;;;;;;;31.75;24.60;;;;;22.30;101928.00;;;;12888673;22;20177;-79
2021/09/07 08:20:11;;;;;;;28.88;22.92;;;;;22.70;101921.00;;;;12864260;22;20189;-79
2021/09/07 08:25:12;;;;;;;34.40;23.40;;;;;23.10;101925.00;;;;12890353;23;20217;-79
2021/09/07 08:30:15;;;;;;;33.65;23.95;;;;;23.60;101924.00;;;;12865299;22;20181;-79
2021/09/07 08:35:16;;;;;;;34.70;22.83;;;;;24.00;101906.00;;;;12914547;22;20241;-80
2021/09/07 08:40:17;;;;;;;28.75;22.08;;;;;24.40;101906.00;;;;12864511;23;20172;-79
2021/09/07 08:45:18;;;;;;;38.45;22.17;;;;;24.80;101899.00;;;;12889392;22;20196;-79
2021/09/07 08:50:19;;;;;;;31.17;22.70;;;;;25.30;101891.00;;;;12914259;22;20173;-79
2021/09/07 08:55:21;;;;;;;28.23;21.38;;;;;25.80;101887.00;;;;12934935;22;20213;-80
2021/09/07 09:00:27;;;;;;;30.50;21.27;;;;;26.30;101886.00;;;;12889586;22;20170;-79
2021/09/07 09:05:30;;;;;;;29.45;21.13;;;;;26.40;101893.00;;;;12935293;22;20421;-80
2021/09/07 09:10:32;;;;;;;26.65;20.60;;;;;26.70;101887.00;;;;12913178;22;20169;-80
2021/09/07 09:15:34;;;;;;;26.35;19.42;;;;;27.00;101887.00;;;;12888297;22;20177;-79
2021/09/07 09:20:37;;;;;;;28.17;20.00;;;;;27.20;101887.00;;;;12864075;22;20265;-80
2021/09/07 09:25:41;;;;;;;28.08;19.13;;;;;27.60;101897.00;;;;12935311;22;20836;-80
2021/09/07 09:30:49;;;;;;;28.02;19.75;;;;;27.80;101901.00;;;;12909509;22;20161;-80
2021/09/07 09:35:57;;;;;;;29.05;19.95;;;;;28.10;101892.00;;;;12934093;22;20190;-80
2021/09/07 09:41:02;;;;;;;25.77;18.23;;;;;28.60;101902.00;;;;12909522;22;20177;-80
2021/09/07 09:46:27;;;;;;;26.45;19.42;;;;;28.90;101898.00;;;;12887489;22;20645;-80
2021/09/07 09:51:28;;;;;;;27.30;17.77;;;;;29.00;101890.00;;;;12864818;22;20170;-80
2021/09/07 09:56:30;;;;;;;26.13;17.10;;;;;28.90;101887.00;;;;12865971;22;20169;-80
2021/09/07 10:01:31;;;;;;;25.02;17.25;;;;;29.00;101882.00;;;;12888258;22;20184;-80
2021/09/07 10:06:32;;;;;;;24.27;17.15;;;;;29.10;101876.00;;;;12911801;22;20190;-80
2021/09/07 10:11:34;;;;;;;25.70;17.48;;;;;29.30;101872.00;;;;12865747;22;20225;-80
2021/09/07 10:16:40;;;;;;;29.05;15.77;;;;;29.40;101871.00;;;;12865162;22;20646;-80
2021/09/07 10:26:51;;;;;;;23.80;16.02;;;;;29.90;101860.00;;;;12865266;22;20201;-80
2021/09/07 10:31:54;;;;;;;20.42;16.15;;;;;29.90;101852.00;;;;12915357;22;20173;-80
2021/09/07 10:37:05;;;;;;;22.52;14.98;;;;;30.00;101849.00;;;;12935597;22;20169;-80
2021/09/07 10:42:08;;;;;;;19.10;15.00;;;;;30.10;101839.00;;;;12937096;22;20172;-79
2021/09/07 10:47:14;;;;;;;16.92;14.43;;;;;30.50;101836.00;;;;12889465;22;20204;-80
2021/09/07 10:52:22;;;;;;;18.75;14.70;;;;;30.70;101833.00;;;;12888452;22;20173;-80
2021/09/07 10:57:43;;;;;;;18.73;14.57;;;;;30.60;101828.00;;;;12890976;22;21054;-80
2021/09/07 11:02:55;;;;;;;23.67;14.48;;;;;30.60;101823.00;;;;12936134;22;20169;-80
2021/09/07 11:08:13;;;;;;;21.55;14.43;;;;;30.70;101817.00;;;;12889598;22;20193;-79
2021/09/07 11:13:24;;;;;;;17.23;13.40;;;;;30.80;101799.00;;;;12840675;22;20173;-79
2021/09/07 11:18:27;;;;;;;17.67;11.90;;;;;30.90;101801.00;;;;12935159;22;20189;-80
2021/09/07 11:23:34;;;;;;;13.05;11.65;;;;;31.00;101799.00;;;;12936375;22;20166;-80
2021/09/07 11:28:37;;;;;;;14.25;11.13;;;;;31.10;101786.00;;;;12936671;22;20561;-80
2021/09/07 11:33:40;;;;;;;11.57;9.45;;;;;31.30;101778.00;;;;12865204;22;20177;-80
2021/09/07 11:38:44;;;;;;;10.52;8.40;;;;;31.30;101774.00;;;;12890612;22;20177;-79
2021/09/07 11:43:51;;;;;;;10.38;8.55;;;;;31.10;101768.00;;;;12889953;22;20228;-80
2021/09/07 11:48:55;;;;;;;9.75;8.38;;;;;31.20;101770.00;;;;12936625;22;20189;-80
2021/09/07 11:53:58;;;;;;;8.05;7.22;;;;;31.30;101758.00;;;;12911064;22;20529;-80
2021/09/07 11:59:12;;;;;;;8.05;7.22;;;;;31.40;101753.00;;;;12889216;22;20533;-80
2021/09/07 12:04:15;;;;;;;11.88;7.78;;;;;31.30;101742.00;;;;12889904;22;20727;-81
2021/09/07 12:09:27;;;;;;;8.95;7.68;;;;;31.40;101743.00;;;;12888686;22;20244;-80
2021/09/07 12:14:36;;;;;;;8.30;7.45;;;;;31.50;101736.00;;;;12935607;22;20201;-80
2021/09/07 12:19:49;;;;;;;12.48;7.55;;;;;31.40;101735.00;;;;12935950;22;20189;-81
2021/09/07 12:25:02;;;;;;;8.35;7.22;;;;;31.40;101733.00;;;;12935596;22;20166;-80
2021/09/07 12:30:30;;;;;;;7.47;6.68;;;;;31.10;101736.00;;;;12934957;22;20165;-80
2021/09/07 12:35:38;;;;;;;9.57;6.45;;;;;31.20;101731.00;;;;12936015;22;20173;-80
2021/09/07 12:40:43;;;;;;;10.82;6.75;;;;;31.30;101720.00;;;;12889177;22;20201;-80
2021/09/07 12:45:48;;;;;;;7.63;6.55;;;;;31.60;101720.00;;;;12935728;22;20205;-80
2021/09/07 12:50:50;;;;;;;11.52;7.25;;;;;31.60;101721.00;;;;12866463;22;20196;-80
2021/09/07 12:55:52;;;;;;;11.93;6.75;;;;;31.30;101712.00;;;;12889103;23;20177;-80
2021/09/07 13:00:53;;;;;;;8.85;7.22;;;;;31.40;101714.00;;;;12890418;22;20177;-80
2021/09/07 13:05:55;;;;;;;6.97;6.22;;;;;31.50;101711.00;;;;12864817;22;20268;-79
2021/09/07 13:10:56;;;;;;;9.10;6.32;;;;;31.50;101715.00;;;;12889370;22;20178;-80
2021/09/07 13:15:58;;;;;;;7.78;6.05;;;;;31.50;101702.00;;;;12889128;22;20197;-80
2021/09/07 13:21:02;;;;;;;12.25;7.38;;;;;31.40;101693.00;;;;12934601;22;20165;-80
2021/09/07 13:26:03;;;;;;;9.25;7.43;;;;;31.20;101699.00;;;;12891890;22;20560;-80
2021/09/07 13:31:04;;;;;;;7.30;6.25;;;;;31.10;101685.00;;;;12938127;22;20165;-80
2021/09/07 13:36:06;;;;;;;9.82;7.07;;;;;31.10;101670.00;;;;12865126;22;20181;-80
2021/09/07 13:41:07;;;;;;;8.07;7.15;;;;;31.40;101671.00;;;;12887660;22;20180;-80
2021/09/07 13:46:09;;;;;;;7.47;6.68;;;;;31.40;101670.00;;;;12890849;22;20201;-79
2021/09/07 13:51:10;;;;;;;10.45;7.03;;;;;31.30;101664.00;;;;12911925;22;20650;-79
2021/09/07 13:56:23;;;;;;;8.77;6.80;;;;;31.20;101658.00;;;;12915669;22;20220;-79
2021/09/07 14:01:25;;;;;;;9.43;7.30;;;;;31.20;101647.00;;;;12937867;22;20165;-79
2021/09/07 14:06:27;;;;;;;7.00;5.75;;;;;31.30;101650.00;;;;12891209;22;20197;-79
2021/09/07 14:11:28;;;;;;;7.00;5.70;;;;;31.50;101643.00;;;;12891943;22;20169;-80
2021/09/07 14:16:29;;;;;;;8.02;5.55;;;;;31.80;101635.00;;;;12963268;22;20181;-79
2021/09/07 14:21:30;;;;;;;6.45;5.65;;;;;32.60;101638.00;;;;12938725;22;20948;-79
2021/09/07 14:26:31;;;;;;;7.03;5.75;;;;;35.00;101615.00;;;;12938991;22;20193;-80
2021/09/07 14:31:34;;;;;;;7.05;5.43;;;;;34.70;101637.00;;;;12939743;22;20177;-81
2021/09/07 14:36:35;;;;;;;6.20;5.57;;;;;32.00;101631.00;;;;12869453;22;20256;-81
2021/09/07 14:41:39;;;;;;;7.35;5.97;;;;;34.10;101613.00;;;;12886833;22;20201;-81
2021/09/07 14:46:40;;;;;;;6.15;5.40;;;;;33.30;101624.00;;;;12850334;22;20185;-80
2021/09/07 14:51:41;;;;;;;6.20;4.70;;;;;31.30;101625.00;;;;12841856;22;20165;-80
2021/09/07 14:56:43;;;;;;;6.70;5.18;;;;;30.60;101616.00;;;;12868651;22;20240;-79
2021/09/07 15:01:44;;;;;;;6.22;4.70;;;;;30.20;101615.00;;;;12916577;22;20538;-80
2021/09/07 15:06:45;;;;;;;5.20;4.70;;;;;29.60;101600.00;;;;12927126;22;20195;-79
2021/09/07 15:11:46;;;;;;;5.60;5.00;;;;;28.80;101603.00;;;;12933782;22;20161;-80
2021/09/07 15:16:48;;;;;;;5.95;5.22;;;;;28.40;101600.00;;;;12838681;22;20503;-80
2021/09/07 15:21:49;;;;;;;6.15;4.63;;;;;28.20;101594.00;;;;12935722;22;20168;-80
2021/09/07 15:26:51;;;;;;;8.88;5.50;;;;;28.10;101593.00;;;;12936752;22;20215;-81
2021/09/07 15:31:53;;;;;;;7.55;5.80;;;;;27.80;101588.00;;;;12866886;22;20174;-80
2021/09/07 15:36:54;;;;;;;6.63;5.05;;;;;27.60;101581.00;;;;12868703;22;20177;-80
2021/09/07 15:41:57;;;;;;;6.63;5.75;;;;;27.50;101574.00;;;;12919499;22;20181;-79
2021/09/07 15:46:59;;;;;;;8.27;5.53;;;;;27.30;101561.00;;;;12867150;22;20208;-80
2021/09/07 15:52:01;;;;;;;7.22;5.53;;;;;27.20;101564.00;;;;12890798;22;20196;-80
2021/09/07 15:57:03;;;;;;;8.27;5.90;;;;;27.10;101559.00;;;;12867108;22;20189;-79
2021/09/07 16:02:04;;;;;;;7.78;5.32;;;;;27.00;101553.00;;;;12893215;23;20182;-79
2021/09/07 16:07:07;;;;;;;10.18;5.57;;;;;26.90;101558.00;;;;12939954;22;20681;-80
2021/09/07 16:12:08;;;;;;;11.10;6.22;;;;;26.80;101564.00;;;;12893200;22;20601;-79
2021/09/07 16:17:10;;;;;;;9.15;6.18;;;;;26.80;101559.00;;;;12938828;22;20177;-80
2021/09/07 16:22:11;;;;;;;7.78;5.82;;;;;26.70;101557.00;;;;12867798;22;20173;-79
2021/09/07 16:27:12;;;;;;;9.20;6.10;;;;;26.60;101548.00;;;;12866741;22;20204;-79
2021/09/07 16:32:13;;;;;;;8.45;6.45;;;;;26.50;101549.00;;;;12867421;22;20169;-80
2021/09/07 16:37:14;;;;;;;9.15;6.22;;;;;26.40;101544.00;;;;12890600;22;20605;-80
2021/09/07 16:42:15;;;;;;;8.63;6.22;;;;;26.30;101541.00;;;;12891596;22;20169;-79
2021/09/07 16:47:17;;;;;;;10.68;6.00;;;;;26.20;101533.00;;;;12890449;22;20193;-80
2021/09/07 16:52:19;;;;;;;12.20;6.43;;;;;26.20;101533.00;;;;12869644;22;20621;-79
2021/09/07 16:57:21;;;;;;;9.25;6.82;;;;;26.00;101528.00;;;;12891979;22;20181;-79
2021/09/07 17:02:22;;;;;;;7.82;6.30;;;;;25.90;101523.00;;;;12938203;22;20223;-80
2021/09/07 17:07:35;;;;;;;8.18;6.68;;;;;25.80;101516.00;;;;12892164;22;20200;-79
2021/09/07 17:12:36;;;;;;;8.77;6.72;;;;;25.60;101516.00;;;;12937101;22;20168;-80
2021/09/07 17:17:37;;;;;;;10.77;7.85;;;;;25.50;101509.00;;;;12889078;22;20193;-79
2021/09/07 17:22:39;;;;;;;8.57;6.95;;;;;25.30;101517.00;;;;12890612;22;20231;-79
2021/09/07 17:27:41;;;;;;;9.48;5.93;;;;;25.10;101510.00;;;;12889258;22;20193;-79
2021/09/07 17:42:54;;;;;;;8.70;6.25;;;;;24.60;101504.00;;;;12910416;22;20157;-79
2021/09/07 17:47:55;;;;;;;9.32;6.30;;;;;24.30;101510.00;;;;12913773;22;20196;-79
2021/09/07 17:52:57;;;;;;;9.25;6.20;;;;;24.10;101512.00;;;;12889848;23;20177;-79
2021/09/07 17:57:58;;;;;;;6.57;5.90;;;;;23.90;101504.00;;;;12934446;22;20162;-79
2021/09/07 18:02:59;;;;;;;6.68;5.60;;;;;23.60;101507.00;;;;12862379;22;20681;-80
2021/09/07 18:08:01;;;;;;;9.23;6.45;;;;;23.40;101506.00;;;;12887967;22;20189;-79
2021/09/07 18:13:02;;;;;;;8.55;7.00;;;;;23.10;101511.00;;;;12935908;22;20185;-79
2021/09/07 18:18:04;;;;;;;9.52;6.28;;;;;22.90;101512.00;;;;12889641;22;20779;-79
2021/09/07 18:23:08;;;;;;;11.48;6.47;;;;;22.70;101520.00;;;;12892657;22;20812;-79
2021/09/07 18:28:09;;;;;;;11.45;7.15;;;;;22.50;101512.00;;;;12891196;22;20280;-79
2021/09/07 18:33:12;;;;;;;7.95;6.30;;;;;22.40;101520.00;;;;12891404;22;20174;-79
2021/09/07 18:38:14;;;;;;;10.30;6.57;;;;;22.20;101513.00;;;;12890557;22;20248;-79
2021/09/07 18:43:15;;;;;;;8.00;6.45;;;;;22.00;101516.00;;;;12891106;22;20189;-79
2021/09/07 18:48:16;;;;;;;10.38;6.22;;;;;21.80;101506.00;;;;12911470;22;20268;-79
2021/09/07 18:53:17;;;;;;;11.63;6.70;;;;;21.70;101519.00;;;;12915622;22;20166;-79
2021/09/07 18:58:20;;;;;;;8.68;6.57;;;;;21.60;101519.00;;;;12866134;22;20188;-80
2021/09/07 19:03:21;;;;;;;7.47;6.03;;;;;21.60;101514.00;;;;12865435;22;20174;-78
2021/09/07 19:08:25;;;;;;;12.50;7.10;;;;;21.50;101526.00;;;;12936650;22;20185;-79
2021/09/07 19:13:27;;;;;;;9.80;6.65;;;;;21.40;101524.00;;;;12865521;22;20169;-79
2021/09/07 19:18:29;;;;;;;10.35;6.57;;;;;21.30;101522.00;;;;12866196;22;20225;-78
2021/09/07 19:23:31;;;;;;;8.98;7.07;;;;;21.10;101524.00;;;;12889940;22;20170;-79
2021/09/07 19:28:34;;;;;;;14.25;7.57;;;;;21.00;101523.00;;;;12890261;22;20294;-79
2021/09/07 19:33:36;;;;;;;12.23;7.60;;;;;20.90;101524.00;;;;12890729;22;20181;-79
2021/09/07 19:38:52;;;;;;;11.75;8.05;;;;;20.80;101524.00;;;;12916872;22;20173;-79
2021/09/07 19:43:53;;;;;;;13.77;7.65;;;;;20.80;101527.00;;;;12937735;22;20166;-79
2021/09/07 19:48:55;;;;;;;11.00;7.05;;;;;20.60;101525.00;;;;12916650;22;20244;-78
2021/09/07 19:53:56;;;;;;;12.27;7.85;;;;;20.50;101513.00;;;;12842417;22;20185;-78
2021/09/07 19:58:57;;;;;;;14.05;8.88;;;;;20.30;101519.00;;;;12890623;22;20224;-78
2021/09/07 20:03:58;;;;;;;12.30;8.88;;;;;20.20;101520.00;;;;12866106;22;20177;-79
2021/09/07 20:08:59;;;;;;;15.25;8.43;;;;;20.10;101520.00;;;;12938287;22;20193;-79
2021/09/07 20:14:01;;;;;;;13.18;8.60;;;;;20.00;101531.00;;;;12886660;22;20620;-79
2021/09/07 20:19:02;;;;;;;11.38;9.07;;;;;20.00;101522.00;;;;12902247;22;20608;-79
2021/09/07 20:24:04;;;;;;;13.35;9.77;;;;;19.90;101523.00;;;;12912797;22;20208;-79
2021/09/07 20:29:05;;;;;;;12.82;10.48;;;;;19.70;101516.00;;;;12887803;22;20201;-79
2021/09/07 20:34:07;;;;;;;13.77;9.82;;;;;19.60;101507.00;;;;12934499;22;20605;-79
2021/09/07 20:39:08;;;;;;;16.35;11.30;;;;;19.50;101501.00;;;;12888322;22;20178;-79
2021/09/07 20:44:09;;;;;;;16.17;11.82;;;;;19.40;101499.00;;;;12888905;22;20178;-79
2021/09/07 20:49:12;;;;;;;19.45;12.13;;;;;19.40;101498.00;;;;12863312;22;20440;-79
2021/09/07 20:54:13;;;;;;;17.25;12.38;;;;;19.40;101494.00;;;;12865241;22;20228;-79
2021/09/07 20:59:14;;;;;;;16.95;12.13;;;;;19.50;101495.00;;;;12912425;22;20545;-79
2021/09/07 21:04:15;;;;;;;17.50;12.65;;;;;19.40;101500.00;;;;12866111;22;20605;-79
2021/09/07 21:09:16;;;;;;;18.23;11.98;;;;;19.30;101508.00;;;;12936984;22;20223;-79
2021/09/07 21:14:17;;;;;;;17.50;12.68;;;;;19.30;101510.00;;;;12864580;22;20228;-78
2021/09/07 21:19:19;;;;;;;17.63;12.75;;;;;19.20;101502.00;;;;12863074;22;20275;-79
2021/09/07 21:24:20;;;;;;;21.42;13.18;;;;;19.10;101489.00;;;;12884637;22;20693;-78
2021/09/07 21:29:21;;;;;;;18.45;13.07;;;;;19.00;101495.00;;;;12882707;22;20193;-78
2021/09/07 21:34:23;;;;;;;18.77;12.77;;;;;18.80;101489.00;;;;12932324;22;20162;-78
2021/09/07 21:39:24;;;;;;;15.85;13.10;;;;;18.70;101496.00;;;;12865139;22;20181;-79
2021/09/07 21:44:25;;;;;;;16.88;13.02;;;;;18.70;101485.00;;;;12842167;22;20265;-80
2021/09/07 21:49:26;;;;;;;19.40;13.48;;;;;18.60;101486.00;;;;12939775;22;20185;-80
2021/09/07 21:54:27;;;;;;;21.23;13.43;;;;;18.50;101487.00;;;;12868690;22;20239;-80
2021/09/07 21:59:29;;;;;;;16.83;13.35;;;;;18.40;101471.00;;;;12916285;22;20625;-80
2021/09/07 22:04:30;;;;;;;20.63;13.18;;;;;18.30;101476.00;;;;12940339;22;20169;-79
2021/09/07 22:09:31;;;;;;;19.33;13.57;;;;;18.10;101474.00;;;;12894589;22;20193;-80
2021/09/07 22:14:32;;;;;;;20.55;14.70;;;;;18.00;101460.00;;;;12918305;22;20173;-79
2021/09/07 22:19:34;;;;;;;18.77;14.30;;;;;17.90;101466.00;;;;12869970;22;20193;-80
2021/09/07 22:24:37;;;;;;;18.63;14.30;;;;;17.80;101462.00;;;;12893558;22;20299;-80
2021/09/07 22:29:39;;;;;;;20.73;15.27;;;;;17.70;101453.00;;;;12892978;22;20376;-79
2021/09/07 22:34:40;;;;;;;22.38;15.82;;;;;17.60;101450.00;;;;12868277;22;20173;-80
2021/09/07 22:39:43;;;;;;;22.92;15.98;;;;;17.60;101438.00;;;;12891620;22;20184;-80
2021/09/07 22:44:44;;;;;;;30.67;18.15;;;;;17.50;101431.00;;;;12867311;22;20173;-79
2021/09/07 22:49:46;;;;;;;26.35;18.58;;;;;17.50;101422.00;;;;12939660;22;20975;-79
2021/09/07 22:54:48;;;;;;;26.05;17.67;;;;;17.60;101424.00;;;;12868047;22;20165;-79
2021/09/07 22:59:52;;;;;;;25.00;17.23;;;;;17.70;101425.00;;;;12939853;22;20223;-79
2021/09/07 23:04:53;;;;;;;26.05;17.65;;;;;17.70;101422.00;;;;12893089;22;20232;-79
2021/09/07 23:09:55;;;;;;;26.30;17.38;;;;;17.60;101427.00;;;;12869340;22;20288;-80
2021/09/07 23:14:56;;;;;;;26.63;16.83;;;;;17.50;101429.00;;;;12867838;22;20291;-80
2021/09/07 23:19:57;;;;;;;23.85;16.98;;;;;17.40;101414.00;;;;12892362;22;20197;-80
2021/09/07 23:24:59;;;;;;;20.58;16.63;;;;;17.30;101411.00;;;;12892574;22;20170;-80
2021/09/07 23:30:00;;;;;;;23.13;15.35;;;;;17.20;101405.00;;;;12892546;22;20193;-79
2021/09/07 23:35:02;;;;;;;28.47;16.27;;;;;17.30;101405.00;;;;12893790;22;20505;-79
2021/09/07 23:40:05;;;;;;;20.53;15.07;;;;;17.30;101406.00;;;;12938544;22;20169;-79
2021/09/07 23:45:06;;;;;;;21.10;16.27;;;;;17.20;101390.00;;;;12891890;22;20279;-80
2021/09/07 23:50:10;;;;;;;26.50;17.40;;;;;17.00;101391.00;;;;12891341;22;20842;-80
2021/09/07 23:55:11;;;;;;;22.40;16.25;;;;;16.80;101381.00;;;;12936457;22;20176;-79
